createdAt,value
2023-04-16T00:04:59.115Z,432.50
2023-04-16T00:10:02.111Z,432.85
2023-04-16T00:15:05.525Z,433.75
2023-04-16T00:20:12.444Z,433.88
2023-04-16T00:25:16.873Z,436.35
2023-04-16T00:30:25.007Z,417.08
2023-04-16T00:35:27.050Z,441.55
2023-04-16T00:40:30.627Z,432.48
2023-04-16T00:45:35.377Z,444.90
2023-04-16T00:50:37.303Z,438.02
2023-04-16T00:55:39.739Z,439.08
2023-04-16T01:00:41.659Z,437.38
2023-04-16T01:05:46.400Z,429.67
2023-04-16T01:10:48.281Z,434.92
2023-04-16T01:15:50.235Z,420.88
2023-04-16T01:20:53.021Z,419.98
2023-04-16T01:25:54.951Z,436.13
2023-04-16T01:30:56.914Z,434.40
2023-04-16T01:36:16.725Z,423.98
2023-04-16T01:41:18.538Z,424.63
2023-04-16T01:46:32.308Z,435.05
2023-04-16T01:51:34.290Z,420.23
2023-04-16T01:56:38.666Z,423.20
2023-04-16T02:01:43.840Z,436.23
2023-04-16T02:06:46.743Z,431.23
2023-04-16T02:11:49.071Z,421.85
2023-04-16T02:16:54.595Z,416.50
2023-04-16T02:22:16.702Z,421.70
2023-04-16T02:27:18.590Z,424.80
2023-04-16T02:32:22.336Z,418.52
2023-04-16T02:37:26.029Z,432.50
2023-04-16T02:42:29.443Z,430.30
2023-04-16T02:47:34.154Z,426.38
2023-04-16T02:52:36.327Z,435.38
2023-04-16T02:57:39.087Z,450.05
2023-04-16T03:02:42.563Z,429.02
2023-04-16T03:07:45.886Z,425.20
2023-04-16T03:12:47.787Z,424.77
2023-04-16T03:17:49.801Z,423.95
2023-04-16T03:22:54.694Z,422.42
2023-04-16T03:27:56.571Z,430.30
2023-04-16T03:32:59.869Z,427.40
2023-04-16T03:38:02.063Z,422.48
2023-04-16T03:43:06.521Z,422.58
2023-04-16T03:48:08.395Z,429.05
2023-04-16T03:53:12.850Z,425.73
2023-04-16T03:58:15.500Z,426.77
2023-04-16T04:03:22.614Z,435.88
2023-04-16T04:08:26.895Z,415.10
2023-04-16T04:13:29.405Z,428.33
2023-04-16T04:18:33.993Z,425.27
2023-04-16T04:23:36.962Z,425.80
2023-04-16T04:28:47.101Z,418.83
2023-04-16T04:33:59.268Z,440.40
2023-04-16T04:39:02.180Z,429.35
2023-04-16T04:44:04.284Z,416.58
2023-04-16T04:49:06.773Z,424.85
2023-04-16T04:54:10.151Z,410.58
2023-04-16T04:59:12.623Z,409.23
2023-04-16T05:04:16.012Z,418.65
2023-04-16T05:09:18.895Z,411.48
2023-04-16T05:14:20.749Z,421.55
2023-04-16T05:19:22.559Z,432.35
2023-04-16T05:24:32.511Z,432.83
2023-04-16T05:29:35.886Z,425.40
2023-04-16T05:34:38.246Z,421.63
2023-04-16T05:39:40.088Z,418.30
2023-04-16T05:44:42.790Z,421.67
2023-04-16T05:49:44.688Z,431.40
2023-04-16T05:54:46.598Z,428.80
2023-04-16T05:59:48.439Z,441.65
2023-04-16T06:04:50.847Z,423.77
2023-04-16T06:09:55.631Z,448.42
2023-04-16T06:14:57.800Z,424.98
2023-04-16T06:19:59.650Z,433.30
2023-04-16T06:25:02.010Z,438.92
2023-04-16T06:30:06.235Z,424.67
2023-04-16T06:35:08.472Z,431.85
2023-04-16T06:40:20.312Z,435.40
2023-04-16T06:45:23.176Z,439.00
2023-04-16T06:50:28.507Z,438.65
2023-04-16T06:55:30.415Z,438.27
2023-04-16T07:00:35.195Z,457.40
2023-04-16T07:05:37.025Z,448.08
2023-04-16T07:10:43.283Z,456.42
2023-04-16T07:15:46.639Z,450.77
2023-04-16T07:20:49.169Z,455.63
2023-04-16T07:26:04.782Z,464.88
2023-04-16T07:31:09.952Z,461.52
2023-04-16T07:36:11.858Z,450.58
2023-04-16T07:41:16.243Z,447.48
2023-04-16T07:46:21.124Z,454.40
2023-04-16T07:51:24.147Z,466.65
2023-04-16T07:56:26.047Z,478.15
2023-04-16T08:01:30.942Z,485.02
2023-04-16T08:06:32.789Z,487.08
2023-04-16T08:11:37.698Z,494.83
2023-04-16T08:16:43.086Z,487.47
2023-04-16T08:21:46.466Z,496.43
2023-04-16T08:26:48.657Z,504.13
2023-04-16T08:31:50.826Z,511.30
2023-04-16T08:36:53.841Z,525.40
2023-04-16T08:42:06.114Z,528.33
2023-04-16T08:47:09.662Z,495.35
2023-04-16T08:52:16.135Z,498.40
2023-04-16T08:57:20.645Z,501.02
2023-04-16T09:02:26.393Z,484.40
2023-04-16T09:07:30.286Z,511.48
2023-04-16T09:12:32.924Z,512.10
2023-04-16T09:17:35.958Z,514.75
2023-04-16T09:22:40.528Z,515.60
2023-04-16T09:27:42.711Z,509.13
2023-04-16T09:32:44.554Z,524.97
2023-04-16T09:38:02.760Z,521.95
2023-04-16T09:43:16.480Z,523.78
2023-04-16T09:48:34.697Z,544.60
2023-04-16T09:53:36.889Z,543.28
2023-04-16T09:58:39.068Z,551.67
2023-04-16T10:03:41.702Z,554.80
2023-04-16T10:08:49.726Z,574.97
2023-04-16T10:13:54.735Z,580.50
2023-04-16T10:18:59.009Z,579.83
2023-04-16T10:24:04.153Z,599.65
2023-04-16T10:29:15.338Z,617.97
2023-04-16T10:34:18.602Z,616.55
2023-04-16T10:39:23.206Z,624.55
2023-04-16T10:44:27.699Z,643.72
2023-04-16T10:49:29.484Z,641.42
2023-04-16T10:54:32.208Z,632.53
2023-04-16T10:59:43.094Z,642.15
2023-04-16T11:04:49.526Z,665.90
2023-04-16T11:10:02.154Z,649.60
2023-04-16T11:15:09.226Z,662.83
2023-04-16T11:20:23.447Z,665.75
2023-04-16T11:25:32.336Z,666.17
2023-04-16T11:30:39.286Z,665.95
2023-04-16T11:35:41.878Z,671.92
2023-04-16T11:40:51.533Z,678.70
2023-04-16T11:46:10.056Z,680.97
2023-04-16T11:51:15.751Z,693.08
2023-04-16T11:56:54.867Z,698.65
2023-04-16T12:01:57.266Z,709.60
2023-04-16T12:07:12.204Z,708.22
2023-04-16T12:12:28.125Z,734.67
2023-04-16T12:17:36.658Z,688.78
2023-04-16T12:22:41.082Z,681.20
2023-04-16T12:27:54.566Z,679.45
2023-04-16T12:33:17.659Z,658.50
2023-04-16T12:38:21.769Z,652.17
2023-04-16T12:43:25.942Z,642.53
2023-04-16T12:48:28.888Z,645.47
2023-04-16T12:53:33.996Z,641.83
2023-04-16T12:58:36.575Z,650.83
2023-04-16T13:03:38.773Z,641.63
2023-04-16T13:08:43.150Z,649.90
2023-04-16T13:13:45.546Z,678.35
2023-04-16T13:18:47.391Z,650.05
2023-04-16T13:23:50.867Z,651.72
2023-04-16T13:28:53.771Z,671.28
2023-04-16T13:33:55.668Z,692.53
2023-04-16T13:38:59.552Z,671.33
2023-04-16T13:44:02.319Z,664.95
2023-04-16T13:49:04.443Z,680.63
2023-04-16T13:54:07.338Z,698.45
2023-04-16T13:59:09.412Z,679.13
2023-04-16T14:04:13.029Z,679.65
2023-04-16T14:09:16.470Z,692.53
2023-04-16T14:14:18.791Z,677.95
2023-04-16T14:19:22.008Z,677.45
2023-04-16T14:24:27.257Z,689.72
2023-04-16T14:29:33.675Z,672.25
2023-04-16T14:34:35.568Z,665.63
2023-04-16T14:39:39.322Z,667.83
2023-04-16T14:44:42.445Z,648.72
2023-04-16T14:49:45.729Z,650.00
2023-04-16T14:54:48.094Z,665.90
2023-04-16T14:59:50.533Z,654.42
2023-04-16T15:04:53.418Z,633.92
2023-04-16T15:09:55.560Z,649.75
2023-04-16T15:14:57.436Z,639.22
2023-04-16T15:19:59.415Z,639.78
2023-04-16T15:25:01.342Z,640.92
2023-04-16T15:30:03.390Z,644.53
2023-04-16T15:43:00.322Z,684.57
2023-04-16T15:48:07.278Z,670.95
2023-04-16T15:53:09.681Z,650.67
2023-04-16T15:58:13.047Z,651.53
2023-04-16T16:03:15.069Z,650.30
2023-04-16T16:08:18.905Z,666.63
2023-04-16T16:18:39.570Z,679.60
2023-04-16T16:23:43.838Z,680.25
2023-04-16T16:28:48.016Z,674.53
2023-04-16T16:33:50.230Z,691.70
2023-04-16T16:38:53.556Z,685.53
2023-04-16T16:43:56.581Z,676.17
2023-04-16T16:48:59.039Z,672.60
2023-04-16T16:54:21.686Z,679.35
2023-04-16T16:59:25.359Z,670.85
2023-04-16T17:04:27.670Z,668.08
2023-04-16T17:09:32.401Z,667.58
2023-04-16T17:14:42.925Z,654.15
2023-04-16T17:19:44.790Z,641.72
2023-04-16T17:24:47.182Z,654.55
2023-04-16T17:29:50.419Z,642.35
2023-04-16T17:34:55.651Z,651.45
2023-04-16T17:39:58.045Z,659.23
2023-04-16T17:45:02.924Z,637.22
2023-04-16T17:50:06.448Z,662.40
2023-04-16T17:55:16.232Z,661.53
2023-04-16T18:00:18.782Z,625.03
2023-04-16T18:05:20.841Z,626.88
2023-04-16T18:10:22.828Z,615.80
2023-04-16T18:15:24.941Z,625.45
2023-04-16T18:20:27.152Z,616.17
2023-04-16T18:25:34.311Z,638.15
2023-04-16T18:30:40.241Z,620.83
2023-04-16T18:35:42.625Z,607.10
2023-04-16T18:40:44.539Z,597.88
2023-04-16T18:45:46.564Z,603.22
2023-04-16T18:50:48.481Z,571.03
2023-04-16T18:55:53.974Z,580.72
2023-04-16T19:00:58.644Z,574.97
2023-04-16T19:06:00.588Z,588.85
2023-04-16T19:11:02.458Z,563.22
2023-04-16T19:16:06.199Z,559.65
2023-04-16T19:21:10.029Z,566.08
2023-04-16T19:26:11.965Z,544.20
2023-04-16T19:31:13.915Z,561.67
2023-04-16T19:36:16.245Z,553.60
2023-04-16T19:41:18.090Z,547.78
2023-04-16T19:46:20.105Z,527.17
2023-04-16T19:51:22.061Z,542.28
2023-04-16T19:56:23.993Z,535.28
2023-04-16T20:01:25.940Z,528.38
2023-04-16T20:06:27.863Z,540.65
2023-04-16T20:11:29.805Z,531.50
2023-04-16T20:16:31.818Z,543.88
2023-04-16T20:21:33.637Z,518.63
2023-04-16T20:26:36.497Z,517.67
2023-04-16T20:31:38.505Z,514.17
2023-04-16T20:36:40.543Z,524.17
2023-04-16T20:41:44.356Z,510.60
2023-04-16T20:46:49.599Z,515.10
2023-04-16T20:51:51.924Z,506.50
2023-04-16T20:56:57.233Z,512.35
2023-04-16T21:01:59.251Z,508.17
2023-04-16T21:07:05.231Z,517.00
2023-04-16T21:12:09.747Z,501.42
2023-04-16T21:17:15.121Z,503.08
2023-04-16T21:22:17.470Z,502.20
2023-04-16T21:27:19.350Z,489.52
2023-04-16T21:32:21.267Z,501.20
2023-04-16T21:37:23.167Z,522.67
2023-04-16T21:42:26.097Z,511.38
2023-04-16T21:47:27.938Z,494.02
2023-04-16T21:52:32.909Z,495.13
2023-04-16T21:57:34.889Z,506.70
2023-04-16T22:02:36.925Z,491.75
2023-04-16T22:07:39.008Z,476.58
2023-04-16T22:12:40.892Z,472.60
2023-04-16T22:17:42.812Z,482.27
2023-04-16T22:22:44.742Z,487.85
2023-04-16T22:27:47.528Z,498.98
2023-04-16T22:32:51.536Z,492.58
2023-04-16T22:37:53.369Z,510.42
2023-04-16T22:42:55.437Z,509.17
2023-04-16T22:47:58.213Z,496.92
2023-04-16T22:53:01.686Z,490.95
2023-04-16T22:58:03.568Z,498.95
2023-04-16T23:03:05.578Z,499.67
2023-04-16T23:08:08.107Z,497.80
2023-04-16T23:13:10.030Z,493.85
2023-04-16T23:18:13.493Z,495.58
2023-04-16T23:23:15.676Z,493.15
2023-04-16T23:28:18.932Z,500.50
2023-04-16T23:33:22.761Z,490.85
2023-04-16T23:38:24.593Z,495.50
2023-04-16T23:43:27.448Z,490.42
2023-04-16T23:48:29.246Z,498.10
2023-04-16T23:53:35.093Z,494.92
2023-04-16T23:58:36.914Z,502.85
